Time;durP1;ratioP1;P1;durP2;ratioP2;P2;SDS_P1;SDS_P2;PMS_P1;PMS_P2;Temp;Humidity;BMP_temperature;BMP_pressure;BME280_temperature;BME280_humidity;BME280_pressure;Samples;Min_cycle;Max_cycle;Signal;HPM_P1;HPM_P2
2024/04/14 00:00:55;;;;;;;3.53;2.30;;;14.70;99.90;;;;;;5443596;26;20289;-75
2024/04/14 00:03:24;;;;;;;2.27;2.07;;;14.60;99.90;;;;;;5453044;26;20573;-75
2024/04/14 00:05:52;;;;;;;2.43;2.20;;;14.60;99.90;;;;;;5452153;26;20234;-75
2024/04/14 00:08:20;;;;;;;2.10;2.00;;;14.50;99.90;;;;;;5452317;26;20523;-75
2024/04/14 00:10:46;;;;;;;2.27;2.07;;;14.50;99.90;;;;;;5451693;26;20599;-75
2024/04/14 00:13:14;;;;;;;3.60;2.30;;;14.40;99.90;;;;;;5452866;26;20486;-74
2024/04/14 00:15:48;;;;;;;2.40;2.13;;;14.40;99.90;;;;;;5452178;26;20226;-74
2024/04/14 00:18:18;;;;;;;2.33;2.13;;;14.50;99.90;;;;;;5452492;26;20471;-74
2024/04/14 00:20:44;;;;;;;3.20;1.60;;;14.50;99.90;;;;;;5451862;26;20519;-75
2024/04/14 00:23:15;;;;;;;1.70;1.60;;;14.70;99.90;;;;;;5452449;26;20517;-75
2024/04/14 00:25:42;;;;;;;1.73;1.63;;;14.80;99.90;;;;;;5451759;26;20519;-75
2024/04/14 00:28:11;;;;;;;1.73;1.60;;;14.80;99.90;;;;;;5452483;26;20482;-75
2024/04/14 00:30:36;;;;;;;3.60;1.60;;;15.00;99.90;;;;;;5451742;26;20463;-74
2024/04/14 00:33:05;;;;;;;2.93;2.10;;;15.10;99.90;;;;;;5450117;26;20467;-75
2024/04/14 00:35:32;;;;;;;2.70;2.30;;;15.20;99.90;;;;;;5450733;26;20233;-75
2024/04/14 00:38:00;;;;;;;1.57;1.37;;;15.30;99.90;;;;;;5449331;26;20487;-75
2024/04/14 00:40:29;;;;;;;1.97;1.77;;;15.40;99.90;;;;;;5449161;26;20470;-75
2024/04/14 00:43:00;;;;;;;4.43;1.67;;;15.60;99.90;;;;;;5449084;26;20519;-75
2024/04/14 00:45:27;;;;;;;1.63;1.53;;;15.70;99.90;;;;;;5449329;26;20462;-75
2024/04/14 00:47:56;;;;;;;2.00;1.70;;;15.70;99.90;;;;;;5449202;26;20975;-75
2024/04/14 00:50:23;;;;;;;2.17;1.80;;;15.80;99.90;;;;;;5450086;26;20584;-76
2024/04/14 00:52:53;;;;;;;2.10;1.90;;;15.70;99.90;;;;;;5452591;26;20519;-75
2024/04/14 00:55:19;;;;;;;4.23;1.90;;;15.70;99.90;;;;;;5453502;26;20471;-75
2024/04/14 00:57:51;;;;;;;1.80;1.70;;;15.60;99.90;;;;;;5452345;26;20927;-75
2024/04/14 01:00:18;;;;;;;1.53;1.37;;;15.50;99.90;;;;;;5452148;26;20466;-75
2024/04/14 01:02:50;;;;;;;1.90;1.70;;;15.40;99.90;;;;;;5452465;26;20881;-75
2024/04/14 01:05:16;;;;;;;2.50;1.77;;;15.30;99.90;;;;;;5452301;26;20576;-75
2024/04/14 01:07:44;;;;;;;2.40;1.87;;;15.20;99.90;;;;;;5452577;26;20467;-75
2024/04/14 01:10:10;;;;;;;2.20;1.60;;;15.10;99.90;;;;;;5452388;26;20233;-76
2024/04/14 01:12:39;;;;;;;2.30;2.10;;;15.00;99.90;;;;;;5452384;26;20606;-76
2024/04/14 01:15:07;;;;;;;2.20;2.00;;;14.90;99.90;;;;;;5452429;26;20586;-76
2024/04/14 01:17:36;;;;;;;1.90;1.80;;;14.70;99.90;;;;;;5437887;26;20471;-75
2024/04/14 01:20:02;;;;;;;3.30;2.00;;;14.50;99.90;;;;;;5444530;26;20938;-76
2024/04/14 01:22:30;;;;;;;2.10;2.00;;;14.40;99.90;;;;;;5452070;26;20463;-75
2024/04/14 01:25:03;;;;;;;1.87;1.77;;;14.30;99.90;;;;;;5452135;26;21231;-76
2024/04/14 01:27:31;;;;;;;2.10;1.87;;;14.10;99.90;;;;;;5452256;26;20479;-75
2024/04/14 01:29:57;;;;;;;1.93;1.80;;;13.90;99.90;;;;;;5451594;26;20593;-75
2024/04/14 01:32:25;;;;;;;2.13;1.90;;;13.80;99.90;;;;;;5452143;26;20471;-75
2024/04/14 01:34:51;;;;;;;5.13;2.23;;;13.60;99.90;;;;;;5452309;26;20229;-75
2024/04/14 01:37:19;;;;;;;2.00;1.87;;;13.50;99.90;;;;;;5451977;26;20562;-75
2024/04/14 01:39:45;;;;;;;3.10;2.20;;;13.50;99.90;;;;;;5451396;26;20229;-75
2024/04/14 01:42:16;;;;;;;2.63;2.13;;;13.30;99.90;;;;;;5451874;26;20527;-75
2024/04/14 01:44:42;;;;;;;2.10;1.80;;;13.20;99.90;;;;;;5452253;26;20297;-75
2024/04/14 01:47:11;;;;;;;2.77;1.90;;;13.20;99.90;;;;;;5451629;26;20475;-75
2024/04/14 01:49:37;;;;;;;1.53;1.43;;;13.30;99.90;;;;;;5451651;26;20230;-76
2024/04/14 01:52:05;;;;;;;2.07;1.87;;;13.40;99.90;;;;;;5451807;26;20517;-75
2024/04/14 01:54:31;;;;;;;2.03;1.50;;;13.60;99.90;;;;;;5451993;26;20463;-75
2024/04/14 01:56:59;;;;;;;1.60;1.50;;;13.80;99.90;;;;;;5451609;26;20556;-75
2024/04/14 01:59:28;;;;;;;1.50;1.40;;;13.90;99.90;;;;;;5451464;26;20281;-75
2024/04/14 02:01:56;;;;;;;1.93;1.80;;;14.10;99.90;;;;;;5451753;26;20999;-75
2024/04/14 02:04:22;;;;;;;1.40;1.30;;;14.40;99.90;;;;;;5451600;26;20475;-75
2024/04/14 02:06:51;;;;;;;2.50;2.00;;;14.50;99.90;;;;;;5451541;26;20515;-75
2024/04/14 02:09:17;;;;;;;2.80;1.80;;;14.60;99.90;;;;;;5450674;26;20302;-75
2024/04/14 02:11:45;;;;;;;1.70;1.60;;;14.70;99.90;;;;;;5450624;26;20459;-75
2024/04/14 02:14:11;;;;;;;1.70;1.60;;;14.80;99.90;;;;;;5450816;26;20230;-75
2024/04/14 02:16:42;;;;;;;2.40;1.90;;;14.90;99.90;;;;;;5450710;26;20939;-75
2024/04/14 02:19:08;;;;;;;1.60;1.50;;;14.90;99.90;;;;;;5450904;26;20302;-75
2024/04/14 02:21:36;;;;;;;1.90;1.67;;;15.00;99.90;;;;;;5451506;26;20908;-75
2024/04/14 02:24:03;;;;;;;2.10;1.90;;;15.10;99.90;;;;;;5451270;26;20276;-75
2024/04/14 02:26:31;;;;;;;2.03;1.67;;;15.10;99.90;;;;;;5451050;26;20467;-75
2024/04/14 02:28:57;;;;;;;2.70;1.90;;;15.10;99.90;;;;;;5450516;26;20570;-75
2024/04/14 02:31:25;;;;;;;1.83;1.43;;;15.10;99.90;;;;;;5451373;26;20467;-75
2024/04/14 02:33:54;;;;;;;1.60;1.50;;;15.10;99.90;;;;;;5451094;26;20233;-75
2024/04/14 02:36:26;;;;;;;1.53;1.43;;;15.10;99.90;;;;;;5451390;26;20518;-74
2024/04/14 02:38:52;;;;;;;1.50;1.40;;;15.10;99.90;;;;;;5450671;26;20813;-75
2024/04/14 02:41:21;;;;;;;1.60;1.20;;;15.20;99.90;;;;;;5451214;26;20519;-75
2024/04/14 02:43:46;;;;;;;2.77;1.87;;;15.20;99.90;;;;;;5451196;26;20293;-75
2024/04/14 02:46:15;;;;;;;1.93;1.63;;;15.20;99.90;;;;;;5450803;26;20467;-75
2024/04/14 02:48:47;;;;;;;1.87;1.57;;;15.20;99.90;;;;;;5450646;26;20305;-75
2024/04/14 02:51:18;;;;;;;1.97;1.87;;;15.20;99.90;;;;;;5446074;26;20856;-75
2024/04/14 02:53:44;;;;;;;1.67;1.57;;;15.30;99.90;;;;;;5451225;26;20798;-75
2024/04/14 02:56:12;;;;;;;2.10;1.60;;;15.40;99.90;;;;;;5445264;26;20475;-75
2024/04/14 02:58:38;;;;;;;2.17;1.57;;;15.40;99.90;;;;;;5450319;26;20463;-75
2024/04/14 03:01:06;;;;;;;1.63;1.50;;;15.40;99.90;;;;;;5450692;26;20848;-75
2024/04/14 03:03:32;;;;;;;1.47;1.30;;;15.40;99.90;;;;;;5441555;26;20234;-75
2024/04/14 03:06:02;;;;;;;1.73;1.63;;;15.40;99.90;;;;;;5450668;26;20519;-74
2024/04/14 03:08:31;;;;;;;1.87;1.77;;;15.40;99.90;;;;;;5450565;26;20234;-75
2024/04/14 03:11:00;;;;;;;2.30;1.93;;;15.50;99.90;;;;;;5450483;26;20514;-75
2024/04/14 03:13:26;;;;;;;2.37;1.50;;;15.50;99.90;;;;;;5450895;26;20475;-75
2024/04/14 03:15:54;;;;;;;1.77;1.67;;;15.50;99.90;;;;;;5450673;26;20560;-74
2024/04/14 03:18:20;;;;;;;2.37;1.90;;;15.50;99.90;;;;;;5450150;26;20238;-74
2024/04/14 03:20:57;;;;;;;1.60;1.50;;;15.50;99.90;;;;;;5450387;26;20522;-74
2024/04/14 03:23:24;;;;;;;2.47;1.80;;;15.50;99.90;;;;;;5448282;26;20463;-75
2024/04/14 03:25:55;;;;;;;2.50;1.43;;;15.50;99.90;;;;;;5450127;26;21055;-75
2024/04/14 03:28:21;;;;;;;5.73;2.23;;;15.50;99.80;;;;;;5448424;26;21035;-75
2024/04/14 03:30:49;;;;;;;2.13;1.50;;;15.50;99.80;;;;;;5450297;26;20467;-74
2024/04/14 03:33:15;;;;;;;2.20;1.70;;;15.50;99.80;;;;;;5446030;26;20593;-75
2024/04/14 03:35:44;;;;;;;1.60;1.50;;;15.40;99.90;;;;;;5450471;26;20463;-75
2024/04/14 03:38:12;;;;;;;1.60;1.50;;;15.40;99.90;;;;;;5449792;26;20525;-74
2024/04/14 03:40:40;;;;;;;1.70;1.47;;;15.40;99.90;;;;;;5449901;26;20467;-74
2024/04/14 03:43:11;;;;;;;2.43;1.90;;;15.30;99.90;;;;;;5450431;26;20615;-75
2024/04/14 03:45:44;;;;;;;1.90;1.80;;;15.30;99.90;;;;;;5441112;26;20451;-74
2024/04/14 03:48:10;;;;;;;2.13;1.60;;;15.30;99.90;;;;;;5449442;26;20588;-74
2024/04/14 03:50:38;;;;;;;2.43;1.63;;;15.20;99.90;;;;;;5449657;26;20829;-74
2024/04/14 03:53:04;;;;;;;1.97;1.47;;;15.20;99.90;;;;;;5453986;26;20233;-74
2024/04/14 03:55:33;;;;;;;1.60;1.50;;;15.20;99.90;;;;;;5449926;26;20515;-74
2024/04/14 03:57:59;;;;;;;1.77;1.67;;;15.20;99.90;;;;;;5449683;26;20467;-74
2024/04/14 04:00:30;;;;;;;1.53;1.40;;;15.20;99.90;;;;;;5449381;26;20471;-74
2024/04/14 04:02:56;;;;;;;2.10;1.67;;;15.10;99.90;;;;;;5449745;26;20234;-74
2024/04/14 04:05:24;;;;;;;1.47;1.30;;;15.10;99.90;;;;;;5450234;26;21165;-74
2024/04/14 04:07:50;;;;;;;1.57;1.47;;;15.10;99.90;;;;;;5449712;26;20349;-75
2024/04/14 04:10:19;;;;;;;1.67;1.57;;;15.10;99.90;;;;;;5448944;26;20824;-75
2024/04/14 04:12:44;;;;;;;1.87;1.70;;;15.10;99.90;;;;;;5449988;26;20463;-75
2024/04/14 04:15:13;;;;;;;1.77;1.43;;;15.10;99.90;;;;;;5449248;26;20475;-76
2024/04/14 04:17:41;;;;;;;2.07;1.60;;;15.00;99.90;;;;;;5449402;26;20238;-75
2024/04/14 04:20:10;;;;;;;2.20;1.90;;;14.90;99.90;;;;;;5449275;26;20622;-75
2024/04/14 04:22:36;;;;;;;4.63;1.80;;;14.90;99.90;;;;;;5435757;26;20467;-75
2024/04/14 04:25:04;;;;;;;2.63;1.50;;;14.90;99.90;;;;;;5449233;26;20578;-75
2024/04/14 04:27:30;;;;;;;2.90;1.73;;;14.90;99.90;;;;;;5449073;26;20356;-75
2024/04/14 04:29:58;;;;;;;2.70;1.53;;;14.80;99.90;;;;;;5448762;26;20482;-75
2024/04/14 04:32:24;;;;;;;1.67;1.57;;;14.80;99.90;;;;;;5449627;26;20333;-75
2024/04/14 04:34:55;;;;;;;2.10;1.37;;;14.70;99.90;;;;;;5449238;26;20822;-75
2024/04/14 04:37:21;;;;;;;1.43;1.33;;;14.70;99.90;;;;;;5448869;26;20596;-75
2024/04/14 04:39:49;;;;;;;1.90;1.70;;;14.70;99.90;;;;;;5450116;26;20585;-75
2024/04/14 04:42:15;;;;;;;1.97;1.70;;;14.60;99.90;;;;;;5452423;26;20257;-75
2024/04/14 04:44:45;;;;;;;3.37;1.83;;;14.60;99.90;;;;;;5452975;26;20571;-75
2024/04/14 04:47:11;;;;;;;2.30;1.37;;;14.50;99.90;;;;;;5452355;26;20238;-75
2024/04/14 04:49:40;;;;;;;1.60;1.50;;;14.50;99.90;;;;;;5452406;26;20901;-75
2024/04/14 04:52:08;;;;;;;1.50;1.30;;;14.40;99.90;;;;;;5452336;26;20234;-74
2024/04/14 04:54:36;;;;;;;1.93;1.60;;;14.50;99.90;;;;;;5438421;26;20471;-75
2024/04/14 04:57:03;;;;;;;2.13;1.40;;;14.50;99.90;;;;;;5452344;26;20494;-74
2024/04/14 04:59:31;;;;;;;1.87;1.47;;;14.50;99.90;;;;;;5452093;26;20467;-74
2024/04/14 05:01:57;;;;;;;1.70;1.30;;;14.50;99.90;;;;;;5452523;26;20478;-75
2024/04/14 05:04:25;;;;;;;2.07;1.80;;;14.60;99.90;;;;;;5452474;26;20905;-75
2024/04/14 05:06:51;;;;;;;1.77;1.57;;;14.60;99.90;;;;;;5452298;26;20370;-75
2024/04/14 05:09:22;;;;;;;1.87;1.77;;;14.60;99.90;;;;;;5451523;26;21349;-75
2024/04/14 05:11:47;;;;;;;1.73;1.63;;;14.60;99.90;;;;;;5452502;26;20234;-75
2024/04/14 05:14:16;;;;;;;1.77;1.53;;;14.60;99.90;;;;;;5452023;26;21063;-75
2024/04/14 05:16:41;;;;;;;1.90;1.70;;;14.70;99.90;;;;;;5457536;26;20240;-74
2024/04/14 05:19:10;;;;;;;2.20;1.53;;;14.70;99.90;;;;;;5455342;26;20577;-75
2024/04/14 05:21:35;;;;;;;3.40;1.50;;;14.70;99.90;;;;;;5452290;26;20341;-75
2024/04/14 05:24:04;;;;;;;2.50;2.20;;;14.60;99.90;;;;;;5451821;26;20467;-75
2024/04/14 05:26:32;;;;;;;2.60;2.10;;;14.60;99.90;;;;;;5452063;26;20293;-75
2024/04/14 05:29:00;;;;;;;2.23;1.77;;;14.50;99.90;;;;;;5451798;26;21015;-74
2024/04/14 05:31:26;;;;;;;2.10;1.43;;;14.50;99.90;;;;;;5450700;26;20527;-75
2024/04/14 05:33:56;;;;;;;1.23;1.13;;;14.50;99.90;;;;;;5452429;26;21000;-75
2024/04/14 05:36:22;;;;;;;2.10;1.33;;;14.60;99.90;;;;;;5451565;26;20234;-75
2024/04/14 05:38:50;;;;;;;1.93;1.70;;;14.60;99.90;;;;;;5451493;26;20471;-75
2024/04/14 05:41:16;;;;;;;3.77;1.80;;;14.80;99.90;;;;;;5451680;26;20234;-75
2024/04/14 05:43:47;;;;;;;1.70;1.60;;;14.90;99.90;;;;;;5452127;26;20506;-75
2024/04/14 05:46:12;;;;;;;2.37;1.20;;;15.10;99.90;;;;;;5451579;26;20234;-75
2024/04/14 05:48:41;;;;;;;2.93;1.63;;;15.30;99.90;;;;;;5451695;26;20942;-76
2024/04/14 05:51:07;;;;;;;3.80;1.50;;;15.50;99.90;;;;;;5450387;26;20233;-75
2024/04/14 05:53:35;;;;;;;5.07;1.97;;;15.60;99.90;;;;;;5437127;26;20925;-75
2024/04/14 05:56:01;;;;;;;1.87;1.50;;;15.80;99.90;;;;;;5451165;26;20582;-75
2024/04/14 05:58:29;;;;;;;4.10;1.90;;;15.90;99.90;;;;;;5449010;26;20574;-75
2024/04/14 06:01:03;;;;;;;1.73;1.63;;;16.00;99.90;;;;;;5451548;26;20941;-75
2024/04/14 06:03:31;;;;;;;2.50;1.60;;;16.10;99.90;;;;;;5451165;26;20622;-75
2024/04/14 06:05:57;;;;;;;1.97;1.60;;;16.20;99.90;;;;;;5452059;26;20810;-75
2024/04/14 06:08:26;;;;;;;1.67;1.57;;;16.30;99.90;;;;;;5451510;26;20479;-75
2024/04/14 06:10:51;;;;;;;1.50;1.40;;;16.30;99.90;;;;;;5451667;26;20825;-75
2024/04/14 06:13:20;;;;;;;2.00;1.37;;;16.40;99.90;;;;;;5449754;26;20467;-75
2024/04/14 06:15:45;;;;;;;1.90;1.70;;;16.50;99.90;;;;;;5442564;26;20233;-76
2024/04/14 06:18:16;;;;;;;2.90;1.50;;;16.60;99.90;;;;;;5450418;26;20464;-75
2024/04/14 06:20:42;;;;;;;2.40;1.83;;;16.70;99.70;;;;;;5439749;26;20312;-75
2024/04/14 06:23:12;;;;;;;2.03;1.60;;;16.80;99.90;;;;;;5451389;26;20583;-76
2024/04/14 06:25:37;;;;;;;2.53;1.70;;;16.90;99.90;;;;;;5444186;26;20261;-74
2024/04/14 06:28:06;;;;;;;3.10;1.53;;;16.90;99.60;;;;;;5429800;26;20467;-74
2024/04/14 06:30:32;;;;;;;1.30;1.13;;;17.00;99.70;;;;;;5422177;26;20237;-73
2024/04/14 06:33:01;;;;;;;1.80;1.50;;;17.00;99.80;;;;;;5451733;26;20927;-74
2024/04/14 06:35:29;;;;;;;1.57;1.47;;;17.10;99.90;;;;;;5451509;26;20234;-74
2024/04/14 06:37:59;;;;;;;1.60;1.50;;;17.10;99.90;;;;;;5451725;26;20521;-75
2024/04/14 06:40:25;;;;;;;1.57;1.47;;;17.20;99.90;;;;;;5451280;26;20463;-74
2024/04/14 06:42:53;;;;;;;2.37;1.50;;;17.30;99.90;;;;;;5451621;26;20575;-73
2024/04/14 06:45:19;;;;;;;1.73;1.57;;;17.40;99.90;;;;;;5450878;26;20348;-73
2024/04/14 06:47:48;;;;;;;2.40;1.63;;;17.50;99.90;;;;;;5440576;26;20487;-73
2024/04/14 06:50:14;;;;;;;1.80;1.70;;;17.60;99.90;;;;;;5450638;26;21117;-73
2024/04/14 06:52:45;;;;;;;2.10;1.70;;;17.70;99.70;;;;;;5451135;26;20471;-73
2024/04/14 06:55:12;;;;;;;1.73;1.60;;;17.80;99.80;;;;;;5451090;26;20467;-73
2024/04/14 06:57:41;;;;;;;1.60;1.40;;;18.00;99.90;;;;;;5451063;26;20526;-74
2024/04/14 07:00:08;;;;;;;1.80;1.57;;;18.10;99.30;;;;;;5451019;26;20917;-74
2024/04/14 07:02:36;;;;;;;1.40;1.30;;;18.20;99.80;;;;;;5451036;26;20886;-74
2024/04/14 07:05:02;;;;;;;1.50;1.40;;;18.30;99.90;;;;;;5451056;26;20467;-74
2024/04/14 07:07:31;;;;;;;1.80;1.70;;;18.40;99.10;;;;;;5450855;26;20517;-74
2024/04/14 07:09:59;;;;;;;1.63;1.37;;;18.50;99.20;;;;;;5450696;26;20238;-74
2024/04/14 07:12:27;;;;;;;1.60;1.37;;;18.60;99.40;;;;;;5451025;26;20589;-74
2024/04/14 07:14:53;;;;;;;1.30;1.20;;;18.70;99.00;;;;;;5451177;26;20590;-74
2024/04/14 07:17:22;;;;;;;1.63;1.33;;;18.90;99.40;;;;;;5450495;26;20475;-74
2024/04/14 07:19:47;;;;;;;2.03;1.77;;;19.00;98.80;;;;;;5450407;26;20297;-74
2024/04/14 07:22:16;;;;;;;3.67;1.57;;;19.00;98.60;;;;;;5448340;26;20587;-74
2024/04/14 07:24:43;;;;;;;1.80;1.50;;;19.10;99.00;;;;;;5444393;26;20234;-76
2024/04/14 07:27:14;;;;;;;1.97;1.60;;;19.10;98.70;;;;;;5446221;26;20480;-81
2024/04/14 07:29:40;;;;;;;2.40;1.60;;;19.10;98.40;;;;;;5450449;26;21034;-75
2024/04/14 07:32:10;;;;;;;2.30;1.90;;;19.10;99.30;;;;;;5443026;26;20558;-77
2024/04/14 07:34:35;;;;;;;1.90;1.60;;;19.20;99.20;;;;;;5434502;26;20234;-73
2024/04/14 07:37:05;;;;;;;4.40;1.50;;;19.20;99.00;;;;;;5435592;26;21008;-73
2024/04/14 07:39:30;;;;;;;1.87;1.70;;;19.10;98.20;;;;;;5439057;26;20336;-73
2024/04/14 07:42:00;;;;;;;2.30;1.40;;;19.10;99.10;;;;;;5428264;26;20878;-73
2024/04/14 07:44:29;;;;;;;1.80;1.40;;;19.40;99.40;;;;;;5448467;26;20301;-73
2024/04/14 07:46:57;;;;;;;2.27;1.80;;;19.60;99.90;;;;;;5442494;26;20468;-72
2024/04/14 07:49:23;;;;;;;1.47;1.33;;;19.80;99.90;;;;;;5446606;26;20464;-72
2024/04/14 07:51:51;;;;;;;1.80;1.50;;;20.00;99.10;;;;;;5445661;26;20476;-73
2024/04/14 07:54:17;;;;;;;1.93;1.60;;;20.20;98.90;;;;;;5445946;26;20261;-73
2024/04/14 07:56:45;;;;;;;2.50;1.70;;;20.40;99.20;;;;;;5447024;26;20468;-73
2024/04/14 07:59:11;;;;;;;1.80;1.50;;;20.50;98.40;;;;;;5444239;26;20329;-73
2024/04/14 08:01:42;;;;;;;2.70;1.70;;;20.70;98.70;;;;;;5447720;26;21003;-73
2024/04/14 08:04:08;;;;;;;1.80;1.60;;;20.90;98.10;;;;;;5443559;26;20655;-73
2024/04/14 08:06:36;;;;;;;1.80;1.60;;;21.10;98.30;;;;;;5449447;26;20463;-73
2024/04/14 08:09:02;;;;;;;2.87;1.63;;;21.30;97.50;;;;;;5441772;26;20241;-73
2024/04/14 08:11:30;;;;;;;2.33;1.67;;;21.50;97.70;;;;;;5449658;26;20580;-73
2024/04/14 08:13:56;;;;;;;1.97;1.47;;;21.70;97.70;;;;;;5441879;26;20535;-73
2024/04/14 08:16:25;;;;;;;2.07;1.80;;;21.50;97.50;;;;;;5452486;26;20587;-74
2024/04/14 08:18:53;;;;;;;1.87;1.70;;;21.40;97.50;;;;;;5445219;26;20731;-74
2024/04/14 08:21:22;;;;;;;1.60;1.33;;;21.70;98.30;;;;;;5452870;26;20571;-74
2024/04/14 08:23:49;;;;;;;1.93;1.53;;;22.10;98.20;;;;;;5445966;26;20479;-74
2024/04/14 08:26:18;;;;;;;1.70;1.60;;;22.50;97.00;;;;;;5452606;26;21018;-74
2024/04/14 08:28:43;;;;;;;2.43;1.80;;;22.60;97.40;;;;;;5446936;26;20594;-74
2024/04/14 08:31:12;;;;;;;2.33;1.67;;;22.40;96.30;;;;;;5452784;26;20561;-74
2024/04/14 08:33:38;;;;;;;1.70;1.60;;;22.50;96.80;;;;;;5446112;26;20276;-74
2024/04/14 08:36:09;;;;;;;1.60;1.50;;;22.70;97.70;;;;;;5451464;26;20459;-74
2024/04/14 08:38:35;;;;;;;2.67;1.70;;;23.10;96.50;;;;;;5448366;26;20234;-74
2024/04/14 08:41:03;;;;;;;2.03;1.83;;;23.70;96.20;;;;;;5452831;26;20527;-73
2024/04/14 08:43:29;;;;;;;1.40;1.30;;;24.30;96.60;;;;;;5447635;26;20664;-75
2024/04/14 08:46:00;;;;;;;2.00;1.63;;;24.70;95.30;;;;;;5452712;26;20471;-74
2024/04/14 08:48:26;;;;;;;1.97;1.50;;;25.20;96.10;;;;;;5447954;26;20229;-74
2024/04/14 08:50:57;;;;;;;2.73;2.60;;;25.60;96.20;;;;;;5451933;26;20915;-74
2024/04/14 08:53:28;;;;;;;2.47;1.80;;;25.80;95.60;;;;;;5448541;26;20470;-74
2024/04/14 08:55:57;;;;;;;2.03;1.83;;;26.30;95.50;;;;;;5453082;26;20525;-73
2024/04/14 08:58:23;;;;;;;1.50;1.40;;;26.50;94.60;;;;;;5448927;26;21030;-74
2024/04/14 09:00:59;;;;;;;1.70;1.60;;;26.70;94.70;;;;;;5448766;26;20478;-74
2024/04/14 09:03:25;;;;;;;1.77;1.67;;;26.80;93.70;;;;;;5448668;26;20462;-74
2024/04/14 09:05:56;;;;;;;2.80;1.70;;;26.80;93.50;;;;;;5448344;26;20884;-74
2024/04/14 09:08:25;;;;;;;1.73;1.60;;;27.20;94.40;;;;;;5448266;26;20326;-74
2024/04/14 09:10:56;;;;;;;1.90;1.80;;;27.40;93.70;;;;;;5450905;26;20598;-74
2024/04/14 09:13:24;;;;;;;1.77;1.50;;;27.60;93.00;;;;;;5450754;26;20594;-75
2024/04/14 09:15:53;;;;;;;2.13;1.60;;;27.90;93.00;;;;;;5451647;26;20471;-74
2024/04/14 09:18:18;;;;;;;1.47;1.37;;;28.10;92.10;;;;;;5450603;26;20464;-74
2024/04/14 09:20:47;;;;;;;2.77;1.83;;;28.20;92.00;;;;;;5455971;26;20471;-75
2024/04/14 09:23:13;;;;;;;2.30;1.70;;;28.10;92.10;;;;;;5450620;26;20842;-75
2024/04/14 09:25:46;;;;;;;1.90;1.70;;;28.20;91.80;;;;;;5441457;26;20463;-75
2024/04/14 09:28:12;;;;;;;1.80;1.70;;;28.30;92.60;;;;;;5436711;26;20276;-75
2024/04/14 09:30:40;;;;;;;1.70;1.60;;;28.50;92.40;;;;;;5439498;26;20467;-74
2024/04/14 09:33:06;;;;;;;2.40;2.00;;;28.90;92.30;;;;;;5439099;26;20554;-74
2024/04/14 09:35:36;;;;;;;3.30;2.57;;;29.40;91.90;;;;;;5436873;26;20463;-74
2024/04/14 09:38:03;;;;;;;1.70;1.60;;;29.60;90.20;;;;;;5437978;26;21000;-75
2024/04/14 09:40:34;;;;;;;1.50;1.27;;;29.30;90.80;;;;;;5451168;26;20514;-74
2024/04/14 09:43:04;;;;;;;1.63;1.53;;;29.60;90.80;;;;;;5440023;26;20469;-72
2024/04/14 09:45:34;;;;;;;2.13;1.97;;;30.00;89.60;;;;;;5451680;26;20797;-74
2024/04/14 09:48:01;;;;;;;2.03;1.70;;;30.20;90.60;;;;;;5448952;26;20539;-72
2024/04/14 09:50:42;;;;;;;2.37;1.70;;;30.10;90.40;;;;;;5451290;26;20577;-73
2024/04/14 09:53:18;;;;;;;2.43;1.90;;;30.30;91.00;;;;;;5440382;26;20472;-71
2024/04/14 09:55:50;;;;;;;2.03;1.77;;;30.70;89.70;;;;;;5462742;26;20471;-72
2024/04/14 09:58:18;;;;;;;2.10;1.77;;;30.60;88.50;;;;;;5460182;26;20503;-73
2024/04/14 10:00:48;;;;;;;2.43;2.23;;;30.90;87.30;;;;;;5451258;26;20464;-75
2024/04/14 10:03:15;;;;;;;2.20;1.70;;;31.20;86.10;;;;;;5451729;26;20531;-76
2024/04/14 10:05:47;;;;;;;1.70;1.60;;;31.20;87.20;;;;;;5452505;26;20534;-74
2024/04/14 10:08:12;;;;;;;1.77;1.67;;;31.20;85.80;;;;;;5439755;26;20529;-75
2024/04/14 10:10:43;;;;;;;3.40;1.90;;;30.90;86.40;;;;;;5451185;26;20460;-74
2024/04/14 10:13:09;;;;;;;2.10;2.00;;;31.00;86.50;;;;;;5451262;26;20249;-73
2024/04/14 10:15:40;;;;;;;2.30;1.80;;;31.20;84.70;;;;;;5450125;26;20531;-74
2024/04/14 10:18:09;;;;;;;2.27;2.07;;;31.40;86.90;;;;;;5425688;26;20525;-74
2024/04/14 10:20:43;;;;;;;1.60;1.50;;;31.80;83.70;;;;;;5435812;26;20515;-73
2024/04/14 10:23:09;;;;;;;2.00;1.77;;;32.10;84.40;;;;;;5451050;26;21074;-74
2024/04/14 10:25:47;;;;;;;1.90;1.70;;;32.40;82.90;;;;;;5451436;26;20464;-74
2024/04/14 10:28:16;;;;;;;1.77;1.67;;;32.70;82.10;;;;;;5442105;26;20270;-74
2024/04/14 10:30:50;;;;;;;3.60;1.80;;;32.90;83.20;;;;;;5450873;26;20540;-74
2024/04/14 10:33:19;;;;;;;1.60;1.50;;;33.00;81.00;;;;;;5442555;26;20590;-73
2024/04/14 10:35:48;;;;;;;1.80;1.70;;;32.80;79.10;;;;;;5451123;26;20512;-74
2024/04/14 10:38:20;;;;;;;1.97;1.87;;;32.80;82.10;;;;;;5449357;26;20467;-74
2024/04/14 10:40:49;;;;;;;1.93;1.80;;;32.50;81.60;;;;;;5450901;26;20967;-74
2024/04/14 10:43:15;;;;;;;2.70;2.20;;;32.50;81.80;;;;;;5443675;26;20469;-73
2024/04/14 10:45:46;;;;;;;2.13;2.03;;;32.40;82.90;;;;;;5450335;26;20467;-74
2024/04/14 10:48:12;;;;;;;2.27;2.07;;;32.60;84.90;;;;;;5443991;26;20609;-74
2024/04/14 10:50:41;;;;;;;2.40;2.20;;;32.80;86.10;;;;;;5450794;26;20830;-74
2024/04/14 10:53:07;;;;;;;2.27;1.87;;;33.40;79.50;;;;;;5444721;26;20468;-74
2024/04/14 10:55:36;;;;;;;2.60;2.40;;;33.50;82.30;;;;;;5421829;26;20826;-74
2024/04/14 10:58:02;;;;;;;3.00;2.67;;;33.50;83.80;;;;;;5450108;26;20482;-74
2024/04/14 11:00:31;;;;;;;1.90;1.80;;;33.50;84.30;;;;;;5450560;26;20642;-74
2024/04/14 11:02:59;;;;;;;2.33;2.13;;;33.60;85.00;;;;;;5450009;26;20467;-74
2024/04/14 11:05:28;;;;;;;2.50;2.20;;;33.50;84.70;;;;;;5450981;26;20467;-74
2024/04/14 11:07:54;;;;;;;2.40;2.20;;;33.20;83.50;;;;;;5451104;26;20474;-74
2024/04/14 11:10:24;;;;;;;2.20;2.00;;;33.00;83.50;;;;;;5449907;26;21030;-74
2024/04/14 11:12:50;;;;;;;2.13;1.90;;;32.70;84.10;;;;;;5450297;26;20890;-74
2024/04/14 11:15:19;;;;;;;2.57;2.37;;;32.70;85.30;;;;;;5450334;26;20525;-74
2024/04/14 11:17:46;;;;;;;2.20;1.97;;;32.60;85.30;;;;;;5449526;26;20460;-74
2024/04/14 11:20:18;;;;;;;2.40;2.20;;;32.30;85.80;;;;;;5450239;26;20891;-74
2024/04/14 11:22:43;;;;;;;2.13;2.00;;;32.30;85.60;;;;;;5435973;26;20527;-74
2024/04/14 11:25:12;;;;;;;2.13;1.70;;;32.00;87.00;;;;;;5450381;26;20583;-74
2024/04/14 11:27:38;;;;;;;1.70;1.60;;;32.00;87.30;;;;;;5450372;26;20289;-75
2024/04/14 11:30:07;;;;;;;3.20;1.80;;;32.00;86.70;;;;;;5450344;26;20575;-74
2024/04/14 11:32:35;;;;;;;1.93;1.80;;;32.30;85.50;;;;;;5435385;26;20806;-74
2024/04/14 11:35:05;;;;;;;2.40;1.97;;;32.10;85.70;;;;;;5450777;26;20520;-74
2024/04/14 11:37:35;;;;;;;4.03;1.90;;;32.20;88.10;;;;;;5450446;26;20542;-73
2024/04/14 11:40:07;;;;;;;2.57;2.37;;;32.30;87.30;;;;;;5449362;26;20475;-74
2024/04/14 11:42:33;;;;;;;2.03;1.73;;;32.20;86.80;;;;;;5450579;26;20554;-75
2024/04/14 11:45:01;;;;;;;2.23;1.77;;;32.50;88.20;;;;;;5450577;26;20543;-74
2024/04/14 11:47:28;;;;;;;2.23;2.03;;;32.50;87.20;;;;;;5450923;26;20288;-73
2024/04/14 11:49:57;;;;;;;1.73;1.63;;;32.40;88.30;;;;;;5448432;26;20571;-74
2024/04/14 11:52:23;;;;;;;2.20;2.00;;;32.80;89.90;;;;;;5449583;26;20820;-74
2024/04/14 11:54:54;;;;;;;2.70;2.03;;;32.90;87.30;;;;;;5449623;26;20557;-74
2024/04/14 11:57:21;;;;;;;1.77;1.67;;;33.10;87.20;;;;;;5449799;26;20929;-74
2024/04/14 11:59:50;;;;;;;2.03;1.83;;;32.90;86.30;;;;;;5449421;26;20460;-73
2024/04/14 12:02:20;;;;;;;2.50;2.00;;;32.70;87.80;;;;;;5449547;26;20467;-73
2024/04/14 12:04:48;;;;;;;2.17;1.97;;;32.60;87.10;;;;;;5449420;26;20471;-73
2024/04/14 12:07:16;;;;;;;1.83;1.73;;;32.50;87.80;;;;;;5449617;26;20487;-74
2024/04/14 12:09:43;;;;;;;1.97;1.87;;;32.50;85.20;;;;;;5448816;26;20565;-74
2024/04/14 12:12:14;;;;;;;1.77;1.63;;;32.30;86.40;;;;;;5449466;26;20471;-73
2024/04/14 12:14:40;;;;;;;2.00;1.90;;;32.20;87.10;;;;;;5449943;26;20459;-79
2024/04/14 12:17:08;;;;;;;1.90;1.80;;;32.20;86.40;;;;;;5448958;26;20636;-73
2024/04/14 12:19:34;;;;;;;2.47;1.83;;;32.30;84.00;;;;;;5449302;26;20459;-73
2024/04/14 12:22:03;;;;;;;2.80;1.77;;;32.20;85.20;;;;;;5449140;26;20589;-74
2024/04/14 12:24:28;;;;;;;2.10;1.90;;;32.30;88.10;;;;;;5449495;26;20348;-74
2024/04/14 12:26:57;;;;;;;2.60;2.27;;;32.60;87.80;;;;;;5449364;26;20479;-74
2024/04/14 12:29:25;;;;;;;2.40;2.23;;;32.80;85.00;;;;;;5449134;26;20337;-74
2024/04/14 12:31:54;;;;;;;1.60;1.50;;;33.00;85.40;;;;;;5448999;26;21085;-74
2024/04/14 12:34:19;;;;;;;1.87;1.77;;;32.90;84.80;;;;;;5449561;26;20584;-73
2024/04/14 12:36:48;;;;;;;1.77;1.67;;;32.60;85.10;;;;;;5449499;26;20455;-74
2024/04/14 12:39:13;;;;;;;2.47;2.00;;;31.90;86.20;;;;;;5438587;26;20784;-73
2024/04/14 12:41:42;;;;;;;2.43;2.23;;;31.60;86.40;;;;;;5449442;26;20459;-74
2024/04/14 12:44:07;;;;;;;2.00;1.87;;;31.40;85.50;;;;;;5439220;26;20234;-73
2024/04/14 12:46:39;;;;;;;1.97;1.87;;;31.50;86.20;;;;;;5449008;26;20896;-73
2024/04/14 12:49:04;;;;;;;1.83;1.67;;;31.60;86.40;;;;;;5439728;26;20341;-73
2024/04/14 12:51:33;;;;;;;2.30;2.10;;;31.80;86.00;;;;;;5448801;26;21022;-73